Time;durP1;ratioP1;P1;durP2;ratioP2;P2;SDS_P1;SDS_P2;PMS_P1;PMS_P2;Temp;Humidity;BMP_temperature;BMP_pressure;BME280_temperature;BME280_humidity;BME280_pressure;Samples;Min_cycle;Max_cycle;Signal;HPM_P1;HPM_P2
2021/09/18 00:00:55;;;;;;;0.82;0.82;;;24.10;52.40;;;;;;5003787;28;20139;-76
2021/09/18 00:03:22;;;;;;;0.90;0.90;;;24.10;52.40;;;;;;5010910;28;20056;-76
2021/09/18 00:05:50;;;;;;;0.75;0.70;;;24.10;52.40;;;;;;5011151;28;20096;-76
2021/09/18 00:08:17;;;;;;;0.77;0.77;;;24.10;52.50;;;;;;4993446;28;20129;-76
2021/09/18 00:10:44;;;;;;;0.65;0.65;;;24.00;52.40;;;;;;4985692;28;20538;-76
2021/09/18 00:13:11;;;;;;;0.80;0.80;;;24.00;52.90;;;;;;4994084;28;20049;-76
2021/09/18 00:15:38;;;;;;;0.60;0.60;;;24.10;52.50;;;;;;5017086;28;20567;-76
2021/09/18 00:18:05;;;;;;;0.70;0.70;;;24.00;52.40;;;;;;4993932;28;20061;-76
2021/09/18 00:20:32;;;;;;;2.10;1.30;;;24.00;52.40;;;;;;5004602;28;20146;-76
2021/09/18 00:23:00;;;;;;;0.60;0.60;;;24.00;52.40;;;;;;4991043;28;20312;-76
2021/09/18 00:25:28;;;;;;;0.95;0.60;;;24.10;52.40;;;;;;5010226;28;20483;-76
2021/09/18 00:27:55;;;;;;;0.70;0.70;;;24.10;52.40;;;;;;5010613;28;20199;-76
2021/09/18 00:30:23;;;;;;;0.77;0.77;;;24.00;52.40;;;;;;4990914;28;20077;-74
2021/09/18 00:32:50;;;;;;;0.77;0.70;;;24.00;52.40;;;;;;4989910;28;20129;-76
2021/09/18 00:35:17;;;;;;;0.75;0.75;;;24.00;52.40;;;;;;5010523;28;20081;-75
2021/09/18 00:37:44;;;;;;;1.05;0.80;;;24.00;52.40;;;;;;5009441;28;20081;-76
2021/09/18 00:40:12;;;;;;;0.90;0.90;;;24.00;52.40;;;;;;5003366;28;20084;-73
2021/09/18 00:42:39;;;;;;;0.95;0.90;;;24.00;52.40;;;;;;4972753;28;20049;-74
2021/09/18 00:45:06;;;;;;;0.70;0.70;;;24.00;52.40;;;;;;5010142;28;20175;-76
2021/09/18 00:47:34;;;;;;;0.90;0.90;;;24.00;52.40;;;;;;5010518;28;20049;-76
2021/09/18 00:50:02;;;;;;;0.60;0.60;;;24.00;52.40;;;;;;5005252;28;20081;-76
2021/09/18 00:52:30;;;;;;;0.60;0.60;;;24.00;52.40;;;;;;5002433;28;20677;-75
2021/09/18 00:54:57;;;;;;;0.57;0.57;;;24.00;52.40;;;;;;5010217;28;20085;-76
2021/09/18 00:57:24;;;;;;;0.63;0.63;;;24.00;52.40;;;;;;5009992;28;20053;-74
2021/09/18 00:59:51;;;;;;;0.77;0.70;;;24.00;52.40;;;;;;5004995;28;20060;-73
2021/09/18 01:02:19;;;;;;;0.50;0.50;;;24.10;52.40;;;;;;5002079;28;20045;-76
2021/09/18 01:04:46;;;;;;;0.60;0.60;;;24.00;52.30;;;;;;5009652;28;20346;-73
2021/09/18 01:07:13;;;;;;;0.70;0.70;;;24.10;52.30;;;;;;5010058;28;20049;-75
2021/09/18 01:09:41;;;;;;;0.73;0.73;;;24.00;52.20;;;;;;4972479;28;20660;-73
2021/09/18 01:12:09;;;;;;;0.85;0.85;;;24.00;52.20;;;;;;4987407;28;20502;-74
2021/09/18 01:14:42;;;;;;;0.60;0.60;;;24.10;52.30;;;;;;5009188;28;20050;-76
2021/09/18 01:17:09;;;;;;;0.77;0.77;;;24.00;52.30;;;;;;5009445;28;20050;-75
2021/09/18 01:19:36;;;;;;;3.47;1.02;;;24.10;52.20;;;;;;5005506;28;20536;-73
2021/09/18 01:22:05;;;;;;;0.85;0.85;;;24.10;52.20;;;;;;5006047;28;20449;-76
2021/09/18 01:24:34;;;;;;;0.60;0.60;;;24.10;52.20;;;;;;5009116;28;20050;-75
2021/09/18 01:27:01;;;;;;;0.70;0.70;;;24.10;52.20;;;;;;5009448;28;20511;-76
2021/09/18 01:29:28;;;;;;;0.95;0.95;;;24.00;52.70;;;;;;5005580;28;20046;-73
2021/09/18 01:31:55;;;;;;;1.02;0.70;;;24.00;52.20;;;;;;5004953;28;20053;-76
2021/09/18 01:34:24;;;;;;;0.60;0.60;;;24.00;52.20;;;;;;5008923;28;20073;-76
2021/09/18 01:36:53;;;;;;;0.75;0.75;;;24.00;52.20;;;;;;5009261;28;20077;-76
2021/09/18 01:39:21;;;;;;;0.68;0.68;;;24.00;52.30;;;;;;5008391;28;20145;-76
2021/09/18 01:41:49;;;;;;;0.77;0.70;;;24.00;52.30;;;;;;5003321;28;20046;-76
2021/09/18 01:44:17;;;;;;;0.60;0.60;;;24.00;52.20;;;;;;5008472;28;20054;-76
2021/09/18 01:46:45;;;;;;;0.70;0.70;;;24.00;52.20;;;;;;5009838;28;20054;-76
2021/09/18 01:49:17;;;;;;;0.70;0.70;;;24.00;52.20;;;;;;5008963;28;20045;-76
2021/09/18 01:51:55;;;;;;;0.80;0.80;;;24.00;52.30;;;;;;4999489;28;20045;-76
2021/09/18 01:54:22;;;;;;;0.77;0.77;;;24.00;52.30;;;;;;5007869;28;20116;-76
2021/09/18 01:56:50;;;;;;;0.60;0.60;;;24.00;52.30;;;;;;4991171;28;20049;-76
2021/09/18 01:59:17;;;;;;;0.80;0.80;;;24.00;52.30;;;;;;4991224;28;20050;-73
2021/09/18 02:01:44;;;;;;;0.77;0.77;;;24.00;52.30;;;;;;5001125;28;20557;-76
2021/09/18 02:04:11;;;;;;;0.98;0.70;;;24.00;52.30;;;;;;5008526;28;20512;-76
2021/09/18 02:06:38;;;;;;;0.80;0.80;;;24.00;52.30;;;;;;4991803;28;20055;-76
2021/09/18 02:09:05;;;;;;;0.75;0.75;;;23.90;52.30;;;;;;5008358;28;20064;-76
2021/09/18 02:11:32;;;;;;;0.85;0.85;;;23.90;52.30;;;;;;5000793;28;20046;-74
2021/09/18 02:14:00;;;;;;;0.60;0.60;;;23.90;52.30;;;;;;4990812;28;20054;-75
2021/09/18 02:16:27;;;;;;;0.52;0.52;;;24.00;52.30;;;;;;5011142;28;20056;-77
2021/09/18 02:18:54;;;;;;;0.57;0.57;;;23.90;52.30;;;;;;5008374;28;20045;-75
2021/09/18 02:21:22;;;;;;;0.70;0.70;;;23.90;52.30;;;;;;4999977;28;20486;-76
2021/09/18 02:23:49;;;;;;;0.60;0.60;;;24.00;52.30;;;;;;5008571;28;20100;-76
2021/09/18 02:26:16;;;;;;;0.60;0.60;;;23.90;52.30;;;;;;5008337;28;20173;-76
2021/09/18 02:28:43;;;;;;;0.68;0.68;;;24.00;52.30;;;;;;5009204;28;20137;-76
2021/09/18 02:31:11;;;;;;;1.00;1.00;;;24.00;52.30;;;;;;4982421;28;20046;-75
2021/09/18 02:33:38;;;;;;;0.50;0.50;;;24.00;52.20;;;;;;5008308;28;20054;-75
2021/09/18 02:36:05;;;;;;;0.68;0.68;;;24.00;52.20;;;;;;4990963;28;20046;-76
2021/09/18 02:38:32;;;;;;;0.60;0.60;;;23.90;52.10;;;;;;5008535;28;20507;-76
2021/09/18 02:40:59;;;;;;;0.77;0.75;;;23.90;52.10;;;;;;4999289;28;20050;-76
2021/09/18 02:43:27;;;;;;;0.57;0.57;;;24.00;52.10;;;;;;5007764;28;20521;-76
2021/09/18 02:45:54;;;;;;;0.70;0.70;;;24.00;52.10;;;;;;4990822;28;20038;-75
2021/09/18 02:48:21;;;;;;;0.75;0.75;;;24.00;52.10;;;;;;5008709;28;20545;-76
2021/09/18 02:50:49;;;;;;;0.88;0.88;;;23.90;52.10;;;;;;4999874;28;20049;-73
2021/09/18 02:53:17;;;;;;;0.63;0.63;;;24.00;52.20;;;;;;5008249;28;20057;-76
2021/09/18 02:55:44;;;;;;;0.77;0.77;;;24.00;52.20;;;;;;5007507;28;20058;-76
2021/09/18 02:58:11;;;;;;;0.47;0.47;;;23.90;52.20;;;;;;5008341;28;20057;-75
2021/09/18 03:00:38;;;;;;;0.63;0.63;;;23.90;52.20;;;;;;4984462;28;20132;-75
2021/09/18 03:03:05;;;;;;;0.50;0.50;;;23.90;52.20;;;;;;4973987;28;20054;-75
2021/09/18 03:05:33;;;;;;;0.93;0.70;;;23.90;52.20;;;;;;4991191;28;20257;-76
2021/09/18 03:08:00;;;;;;;0.77;0.77;;;23.90;52.20;;;;;;5008631;28;20351;-76
2021/09/18 03:10:27;;;;;;;0.40;0.40;;;23.90;52.20;;;;;;4984428;28;20060;-76
2021/09/18 03:12:55;;;;;;;0.50;0.50;;;23.90;52.20;;;;;;5005820;28;20140;-75
2021/09/18 03:15:22;;;;;;;0.50;0.50;;;23.90;52.20;;;;;;5007457;28;20053;-76
2021/09/18 03:17:49;;;;;;;1.38;0.60;;;23.90;52.20;;;;;;5008713;28;20050;-76
2021/09/18 03:20:16;;;;;;;0.50;0.50;;;23.90;52.20;;;;;;4993932;28;20057;-75
2021/09/18 03:22:43;;;;;;;0.60;0.45;;;23.90;52.30;;;;;;4990411;28;20483;-76
2021/09/18 03:25:11;;;;;;;0.50;0.50;;;23.90;52.20;;;;;;5011460;28;20092;-76
2021/09/18 03:27:38;;;;;;;0.50;0.50;;;23.90;52.20;;;;;;5011328;28;20287;-74
2021/09/18 03:30:06;;;;;;;0.88;0.88;;;23.90;52.20;;;;;;5005716;28;20104;-74
2021/09/18 03:32:33;;;;;;;0.68;0.68;;;23.90;52.20;;;;;;5009451;28;20054;-76
2021/09/18 03:35:02;;;;;;;0.70;0.70;;;23.90;52.20;;;;;;5010928;28;20420;-76
2021/09/18 03:37:33;;;;;;;1.50;0.80;;;23.90;52.30;;;;;;5011473;28;20046;-76
2021/09/18 03:40:05;;;;;;;0.73;0.60;;;23.90;52.20;;;;;;5007641;28;20283;-74
2021/09/18 03:42:32;;;;;;;0.35;0.35;;;23.90;52.30;;;;;;5009824;28;20046;-75
2021/09/18 03:44:59;;;;;;;0.55;0.55;;;23.90;52.20;;;;;;5011167;28;20045;-76
2021/09/18 03:47:27;;;;;;;0.70;0.70;;;23.90;52.20;;;;;;5011596;28;20046;-76
2021/09/18 03:49:54;;;;;;;0.82;0.82;;;23.90;52.20;;;;;;5007725;28;20054;-76
2021/09/18 03:52:25;;;;;;;0.55;0.55;;;23.90;52.10;;;;;;4989806;28;20042;-75
2021/09/18 03:54:53;;;;;;;0.65;0.65;;;23.90;52.10;;;;;;5010386;28;20479;-76
2021/09/18 03:57:20;;;;;;;0.52;0.52;;;23.90;52.00;;;;;;5010801;28;20331;-75
2021/09/18 03:59:47;;;;;;;0.70;0.70;;;23.90;52.10;;;;;;5007434;28;20092;-73
2021/09/18 04:02:15;;;;;;;0.70;0.70;;;23.90;52.00;;;;;;4982266;28;20073;-76
2021/09/18 04:04:42;;;;;;;0.73;0.73;;;23.90;52.00;;;;;;4991774;28;20054;-76
2021/09/18 04:07:09;;;;;;;0.57;0.50;;;23.90;52.00;;;;;;4991451;28;20363;-76
2021/09/18 04:09:36;;;;;;;0.90;0.90;;;23.90;52.00;;;;;;4989386;28;20062;-74
2021/09/18 04:12:04;;;;;;;0.70;0.70;;;23.90;52.00;;;;;;5005499;28;20053;-74
2021/09/18 04:14:31;;;;;;;0.60;0.60;;;23.90;52.00;;;;;;4992686;28;20534;-76
2021/09/18 04:16:58;;;;;;;1.17;0.70;;;23.90;52.00;;;;;;5010759;28;20050;-76
2021/09/18 04:19:26;;;;;;;0.63;0.63;;;23.90;52.10;;;;;;4993027;28;20085;-75
2021/09/18 04:21:53;;;;;;;0.52;0.52;;;23.90;52.10;;;;;;4992926;28;20046;-76
2021/09/18 04:24:20;;;;;;;0.65;0.65;;;23.90;52.10;;;;;;4993240;28;20062;-76
2021/09/18 04:26:47;;;;;;;0.82;0.82;;;23.80;52.60;;;;;;5010205;28;20046;-76
2021/09/18 04:29:14;;;;;;;0.73;0.73;;;23.80;52.10;;;;;;4992627;28;20525;-75
2021/09/18 04:31:42;;;;;;;0.75;0.75;;;23.90;52.10;;;;;;5001801;28;20042;-76
2021/09/18 04:34:09;;;;;;;0.60;0.60;;;23.80;52.10;;;;;;4975480;28;20108;-75
2021/09/18 04:36:36;;;;;;;0.60;0.60;;;23.90;52.10;;;;;;5010547;28;20046;-75
2021/09/18 04:39:03;;;;;;;0.70;0.70;;;23.90;52.10;;;;;;5010237;28;20077;-76
2021/09/18 04:41:31;;;;;;;0.80;0.80;;;23.90;52.00;;;;;;5001637;28;20049;-73
2021/09/18 04:43:58;;;;;;;0.77;0.77;;;23.80;52.00;;;;;;5009917;28;20061;-76
2021/09/18 04:46:25;;;;;;;0.43;0.43;;;23.90;52.00;;;;;;4992709;28;20500;-75
2021/09/18 04:48:52;;;;;;;0.70;0.70;;;23.90;52.00;;;;;;5010344;28;20078;-75
2021/09/18 04:51:20;;;;;;;0.70;0.60;;;23.90;52.00;;;;;;5003010;28;20065;-75
2021/09/18 04:53:47;;;;;;;0.65;0.65;;;23.90;52.00;;;;;;5009962;28;20518;-75
2021/09/18 04:56:14;;;;;;;0.43;0.43;;;23.90;52.00;;;;;;5009567;28;20085;-76
2021/09/18 04:58:41;;;;;;;0.60;0.60;;;23.90;51.90;;;;;;5010002;28;20411;-75
2021/09/18 05:01:08;;;;;;;0.60;0.60;;;23.90;51.90;;;;;;5000741;28;20041;-73
2021/09/18 05:03:36;;;;;;;0.70;0.70;;;23.90;51.90;;;;;;5009635;28;20042;-75
2021/09/18 05:06:03;;;;;;;0.55;0.55;;;23.90;51.90;;;;;;5009987;28;20068;-75
2021/09/18 05:08:30;;;;;;;0.52;0.52;;;23.90;51.80;;;;;;5009460;28;20045;-75
2021/09/18 05:10:57;;;;;;;0.70;0.70;;;23.90;51.90;;;;;;4970391;28;20114;-74
2021/09/18 05:13:24;;;;;;;0.60;0.60;;;23.90;51.90;;;;;;4979737;28;20486;-73
2021/09/18 05:15:51;;;;;;;0.70;0.70;;;23.80;51.80;;;;;;4998947;28;20046;-75
2021/09/18 05:18:19;;;;;;;0.70;0.70;;;23.80;51.80;;;;;;4982483;28;20054;-75
2021/09/18 05:20:46;;;;;;;1.75;0.80;;;23.70;51.80;;;;;;4993876;28;20046;-72
2021/09/18 05:23:13;;;;;;;0.60;0.60;;;23.70;51.80;;;;;;4998644;28;20046;-75
2021/09/18 05:25:40;;;;;;;0.70;0.70;;;23.70;51.80;;;;;;4999548;28;20069;-75
2021/09/18 05:28:07;;;;;;;0.63;0.63;;;23.60;51.90;;;;;;4997351;28;20239;-74
2021/09/18 05:30:34;;;;;;;0.77;0.77;;;23.50;52.10;;;;;;4980427;28;20097;-75
2021/09/18 05:33:01;;;;;;;0.70;0.70;;;23.30;52.40;;;;;;4993542;28;20081;-75
2021/09/18 05:35:29;;;;;;;0.88;0.88;;;23.20;52.70;;;;;;4999256;28;20054;-75
2021/09/18 05:37:56;;;;;;;0.73;0.73;;;23.00;53.00;;;;;;4979912;28;20100;-75
2021/09/18 05:40:25;;;;;;;0.70;0.70;;;22.80;53.00;;;;;;4991286;28;20061;-75
2021/09/18 05:42:53;;;;;;;0.80;0.80;;;22.70;53.00;;;;;;4980949;28;20092;-74
2021/09/18 05:45:20;;;;;;;1.77;0.60;;;22.60;53.30;;;;;;4997819;28;20053;-75
2021/09/18 05:47:48;;;;;;;0.90;0.90;;;22.50;53.30;;;;;;5001549;28;20046;-75
2021/09/18 05:50:15;;;;;;;0.80;0.80;;;22.40;53.00;;;;;;4997201;28;20484;-72
2021/09/18 05:52:42;;;;;;;0.88;0.88;;;22.30;53.00;;;;;;5006077;28;20073;-75
2021/09/18 05:55:10;;;;;;;0.75;0.75;;;22.20;53.20;;;;;;5008443;28;20053;-77
2021/09/18 05:57:37;;;;;;;1.70;1.30;;;22.10;53.40;;;;;;5008862;28;20045;-75
2021/09/18 06:00:05;;;;;;;1.05;0.85;;;22.00;53.50;;;;;;5003878;28;20108;-74
2021/09/18 06:02:32;;;;;;;0.75;0.75;;;21.90;53.10;;;;;;5005231;28;20042;-74
2021/09/18 06:05:00;;;;;;;0.80;0.80;;;21.80;53.10;;;;;;5009188;28;20060;-75
2021/09/18 06:07:27;;;;;;;1.00;1.00;;;21.70;53.40;;;;;;5008622;28;20065;-75
2021/09/18 06:09:54;;;;;;;1.20;1.10;;;21.60;53.70;;;;;;5003586;28;20049;-74
2021/09/18 06:12:21;;;;;;;0.63;0.63;;;21.60;54.10;;;;;;5001356;28;20045;-73
2021/09/18 06:14:48;;;;;;;1.15;1.15;;;21.60;54.20;;;;;;5008600;28;20072;-74
2021/09/18 06:17:16;;;;;;;0.82;0.82;;;21.50;54.30;;;;;;5009115;28;20511;-74
2021/09/18 06:19:43;;;;;;;1.20;0.88;;;21.50;54.70;;;;;;4987302;28;20107;-74
2021/09/18 06:22:12;;;;;;;0.80;0.80;;;21.40;54.60;;;;;;4988097;28;20333;-75
2021/09/18 06:24:41;;;;;;;1.52;1.42;;;21.40;54.60;;;;;;5014537;28;20046;-76
2021/09/18 06:27:08;;;;;;;1.20;1.10;;;21.40;54.60;;;;;;5012159;28;20050;-74
2021/09/18 06:29:35;;;;;;;0.75;0.75;;;21.30;54.70;;;;;;5007241;28;20466;-72
2021/09/18 06:32:07;;;;;;;1.00;1.00;;;21.30;55.00;;;;;;5005334;28;20073;-75
2021/09/18 06:34:35;;;;;;;1.02;0.93;;;21.20;55.10;;;;;;5011484;28;20053;-75
2021/09/18 06:37:03;;;;;;;0.80;0.80;;;21.20;55.20;;;;;;5012801;28;20041;-75
2021/09/18 06:39:31;;;;;;;1.02;1.00;;;21.20;55.50;;;;;;5009698;28;20046;-72
2021/09/18 06:41:58;;;;;;;1.00;1.00;;;21.20;55.40;;;;;;5003156;28;20042;-75
2021/09/18 06:44:25;;;;;;;0.93;0.93;;;21.20;55.20;;;;;;5007729;28;20466;-75
2021/09/18 06:46:52;;;;;;;1.13;1.13;;;21.20;55.30;;;;;;5008316;28;20487;-75
2021/09/18 06:49:19;;;;;;;0.85;0.80;;;21.20;55.10;;;;;;5007637;28;20092;-76
2021/09/18 06:51:46;;;;;;;0.98;0.98;;;21.20;55.00;;;;;;5000933;28;20066;-75
2021/09/18 06:54:14;;;;;;;1.02;1.02;;;21.10;54.70;;;;;;5008172;28;20112;-74
2021/09/18 06:56:41;;;;;;;0.80;0.80;;;21.10;54.90;;;;;;5007672;28;20054;-75
2021/09/18 06:59:08;;;;;;;1.10;1.10;;;21.10;55.20;;;;;;5012056;28;20049;-75
2021/09/18 07:01:35;;;;;;;1.45;1.20;;;21.10;55.40;;;;;;5002920;28;20115;-72
2021/09/18 07:04:02;;;;;;;1.00;1.00;;;21.10;55.40;;;;;;5011948;28;20046;-75
2021/09/18 07:06:30;;;;;;;1.05;0.90;;;21.10;55.30;;;;;;4994887;28;20492;-75
2021/09/18 07:08:57;;;;;;;1.25;1.15;;;21.10;55.50;;;;;;5011999;28;20053;-75
2021/09/18 07:11:24;;;;;;;0.90;0.90;;;21.10;55.40;;;;;;5002385;28;20046;-74
2021/09/18 07:13:51;;;;;;;1.13;1.02;;;21.10;55.10;;;;;;4994818;28;20049;-74
2021/09/18 07:16:18;;;;;;;1.50;1.40;;;21.10;55.10;;;;;;5011809;28;20692;-75
2021/09/18 07:18:46;;;;;;;1.20;1.20;;;21.10;55.30;;;;;;5012472;28;20091;-75
2021/09/18 07:21:13;;;;;;;1.20;1.20;;;21.10;55.60;;;;;;5002634;28;20077;-75
2021/09/18 07:23:40;;;;;;;1.00;1.00;;;21.10;55.80;;;;;;5012101;28;20101;-75
2021/09/18 07:26:08;;;;;;;1.20;1.20;;;21.10;55.40;;;;;;5012200;28;20306;-75
2021/09/18 07:28:35;;;;;;;1.15;1.15;;;21.10;55.10;;;;;;5011372;28;20108;-73
2021/09/18 07:31:24;;;;;;;1.38;1.38;;;21.10;55.40;;;;;;5001770;28;20045;-73
2021/09/18 07:33:51;;;;;;;1.40;1.30;;;21.10;55.60;;;;;;5010473;28;20124;-75
2021/09/18 07:36:18;;;;;;;1.60;1.50;;;21.10;55.90;;;;;;5011243;28;20053;-75
2021/09/18 07:38:46;;;;;;;1.58;1.48;;;21.10;55.60;;;;;;5011393;28;20057;-75
2021/09/18 07:41:13;;;;;;;1.40;1.30;;;21.10;55.40;;;;;;5002210;28;20050;-76
2021/09/18 07:43:41;;;;;;;1.92;1.40;;;21.10;55.70;;;;;;5009983;28;20479;-74
2021/09/18 07:46:08;;;;;;;1.58;1.48;;;21.10;56.00;;;;;;5012049;28;20054;-75
2021/09/18 07:48:35;;;;;;;1.00;1.00;;;21.00;56.00;;;;;;5011456;28;20042;-76
2021/09/18 07:51:20;;;;;;;1.70;1.60;;;21.10;55.70;;;;;;5002847;28;20054;-75
2021/09/18 07:53:47;;;;;;;1.25;1.23;;;21.00;55.80;;;;;;4992405;28;20100;-75
2021/09/18 07:56:14;;;;;;;1.88;1.77;;;21.00;56.10;;;;;;5011284;28;20050;-75
2021/09/18 07:58:41;;;;;;;1.48;1.48;;;21.00;56.10;;;;;;5010624;28;20200;-73
2021/09/18 08:01:09;;;;;;;1.40;1.40;;;21.10;55.90;;;;;;5000933;28;20041;-75
2021/09/18 08:03:36;;;;;;;1.50;1.40;;;21.10;56.10;;;;;;5010190;28;20131;-75
2021/09/18 08:06:05;;;;;;;1.35;1.30;;;21.10;56.20;;;;;;5011637;28;20056;-75
2021/09/18 08:08:32;;;;;;;1.60;1.50;;;21.00;56.30;;;;;;5011085;28;20093;-75
2021/09/18 08:11:36;;;;;;;1.55;1.30;;;21.00;55.90;;;;;;5001595;28;20061;-75
2021/09/18 08:14:03;;;;;;;1.55;1.45;;;21.00;56.00;;;;;;5010496;28;20058;-77
2021/09/18 08:16:31;;;;;;;1.33;1.23;;;21.00;56.50;;;;;;5011013;28;20046;-75
2021/09/18 08:18:58;;;;;;;1.35;1.25;;;21.00;56.30;;;;;;5010952;28;20046;-75
2021/09/18 08:21:25;;;;;;;1.67;1.40;;;21.10;55.90;;;;;;4998476;28;20502;-75
2021/09/18 08:23:53;;;;;;;1.35;1.27;;;21.10;56.10;;;;;;5010894;28;20050;-75
2021/09/18 08:26:21;;;;;;;1.60;1.50;;;21.10;56.30;;;;;;5010896;28;20049;-75
2021/09/18 08:28:48;;;;;;;1.40;1.30;;;21.10;56.30;;;;;;5010393;28;20077;-74
2021/09/18 08:31:19;;;;;;;1.38;1.27;;;21.10;55.80;;;;;;5000134;28;20054;-73
2021/09/18 08:33:46;;;;;;;1.38;1.33;;;21.10;55.90;;;;;;5015040;28;20084;-75
2021/09/18 08:36:13;;;;;;;1.42;1.33;;;21.20;55.90;;;;;;5010889;28;20120;-75
2021/09/18 08:38:40;;;;;;;1.48;1.38;;;21.20;56.00;;;;;;5010662;28;20046;-75
2021/09/18 08:41:08;;;;;;;1.20;1.20;;;21.20;55.50;;;;;;5001045;28;20041;-75
2021/09/18 08:43:36;;;;;;;1.27;1.23;;;21.30;55.70;;;;;;5005828;28;20045;-73
2021/09/18 08:46:03;;;;;;;1.40;1.40;;;21.20;55.90;;;;;;5010172;28;20085;-75
2021/09/18 08:48:32;;;;;;;2.28;1.40;;;21.20;56.00;;;;;;5010584;28;20046;-77
2021/09/18 08:51:00;;;;;;;1.27;1.23;;;21.20;55.60;;;;;;4998327;28;20348;-72
2021/09/18 08:53:27;;;;;;;1.50;1.40;;;21.20;55.70;;;;;;5010502;28;20046;-75
2021/09/18 08:55:56;;;;;;;1.40;1.30;;;21.20;56.00;;;;;;5009751;28;20108;-75
2021/09/18 08:58:24;;;;;;;1.70;1.60;;;21.20;55.80;;;;;;5009710;28;20041;-75
2021/09/18 09:00:53;;;;;;;1.48;1.38;;;21.20;55.50;;;;;;5000783;28;20037;-73
2021/09/18 09:03:36;;;;;;;1.10;1.10;;;21.20;55.80;;;;;;5007877;28;20054;-75
2021/09/18 09:06:10;;;;;;;1.05;1.05;;;21.20;55.80;;;;;;5009979;28;20061;-75
2021/09/18 09:08:40;;;;;;;1.00;1.00;;;21.20;55.60;;;;;;5010206;28;20101;-74
2021/09/18 09:11:23;;;;;;;1.55;1.45;;;21.20;55.50;;;;;;4998221;28;20082;-74
2021/09/18 09:13:59;;;;;;;1.33;1.23;;;21.20;55.60;;;;;;4991947;28;20054;-74
2021/09/18 09:16:28;;;;;;;1.60;1.50;;;21.20;55.60;;;;;;5009150;28;20607;-74
2021/09/18 09:18:56;;;;;;;1.30;1.20;;;21.20;55.40;;;;;;5009685;28;20061;-75
2021/09/18 09:21:27;;;;;;;1.02;1.02;;;21.20;55.20;;;;;;4997112;28;20041;-75
2021/09/18 09:24:16;;;;;;;1.45;1.35;;;21.30;55.70;;;;;;5008693;28;20056;-75
2021/09/18 09:27:06;;;;;;;1.25;1.20;;;21.30;55.30;;;;;;5009660;28;20555;-74
2021/09/18 09:29:46;;;;;;;1.20;1.15;;;21.30;55.10;;;;;;5007527;28;20046;-74
2021/09/18 09:32:37;;;;;;;1.70;1.60;;;21.30;54.80;;;;;;4984957;28;20058;-74
2021/09/18 09:35:10;;;;;;;1.13;1.13;;;21.30;55.00;;;;;;5009368;28;20142;-75
2021/09/18 09:37:37;;;;;;;1.45;1.35;;;21.30;55.00;;;;;;4991300;28;20102;-74
2021/09/18 09:40:09;;;;;;;1.35;1.30;;;21.30;54.70;;;;;;4988132;28;20080;-72
2021/09/18 09:42:44;;;;;;;1.10;1.10;;;21.30;55.00;;;;;;5003068;28;20140;-75
2021/09/18 09:45:18;;;;;;;1.40;1.30;;;21.30;55.10;;;;;;5008789;28;20144;-74
2021/09/18 09:47:46;;;;;;;1.10;1.10;;;21.30;54.90;;;;;;5008885;28;20129;-74
2021/09/18 09:50:53;;;;;;;1.63;1.52;;;21.30;55.00;;;;;;4986372;28;20573;-74
2021/09/18 09:53:29;;;;;;;1.75;1.65;;;21.30;55.20;;;;;;5005257;28;20503;-74
2021/09/18 09:55:57;;;;;;;1.55;1.45;;;21.30;55.00;;;;;;4991125;28;20140;-76
2021/09/18 09:58:25;;;;;;;1.63;1.52;;;21.40;55.00;;;;;;5008576;28;20058;-75
2021/09/18 10:00:53;;;;;;;1.52;1.42;;;21.40;54.90;;;;;;5001521;28;20073;-73
2021/09/18 10:03:22;;;;;;;1.42;1.33;;;21.40;54.80;;;;;;5006169;28;20053;-75
2021/09/18 10:05:50;;;;;;;1.60;1.50;;;21.40;54.60;;;;;;5009273;28;20471;-74
2021/09/18 10:08:23;;;;;;;1.17;1.10;;;21.40;54.70;;;;;;5008752;28;20077;-75
2021/09/18 10:10:52;;;;;;;1.58;1.48;;;21.40;54.60;;;;;;4998847;28;20443;-72
2021/09/18 10:13:25;;;;;;;1.05;1.05;;;21.40;54.30;;;;;;5006235;28;20667;-74
2021/09/18 10:15:54;;;;;;;1.20;1.10;;;21.40;54.20;;;;;;5008998;28;20096;-75
2021/09/18 10:18:23;;;;;;;1.45;1.40;;;21.50;54.50;;;;;;5008437;28;20045;-75
2021/09/18 10:23:35;;;;;;;1.25;1.25;;;21.50;54.30;;;;;;5007430;28;20060;-75
2021/09/18 10:26:11;;;;;;;1.25;1.15;;;21.40;54.30;;;;;;5008877;28;20050;-75
2021/09/18 10:28:46;;;;;;;1.23;1.23;;;21.40;54.50;;;;;;5008799;28;20068;-74
2021/09/18 10:31:21;;;;;;;1.02;1.02;;;21.40;54.30;;;;;;4988478;28;20081;-73
2021/09/18 10:33:52;;;;;;;0.93;0.93;;;21.40;54.30;;;;;;5008065;28;20054;-75
2021/09/18 10:36:42;;;;;;;1.05;1.05;;;21.40;54.30;;;;;;5010408;28;20082;-75
2021/09/18 10:39:12;;;;;;;;;;;21.40;54.40;;;;;;5008813;28;20078;-74
2021/09/18 10:41:51;;;;;;;1.20;1.20;;;21.40;54.40;;;;;;4998138;28;19948;-75
2021/09/18 10:44:21;;;;;;;1.50;1.40;;;21.40;54.50;;;;;;4990465;28;20152;-73
2021/09/18 10:46:52;;;;;;;1.30;1.20;;;21.40;54.50;;;;;;5008043;28;20553;-75
2021/09/18 10:49:40;;;;;;;1.10;1.10;;;21.40;54.50;;;;;;5008247;28;20136;-73
2021/09/18 10:52:33;;;;;;;1.10;1.10;;;21.40;54.60;;;;;;5001914;28;20046;-74
2021/09/18 10:55:08;;;;;;;1.50;1.40;;;21.50;54.60;;;;;;5007939;28;20490;-75
2021/09/18 10:58:02;;;;;;;1.00;1.00;;;21.50;54.50;;;;;;4990792;28;20114;-75
2021/09/18 11:00:41;;;;;;;1.00;1.00;;;21.50;54.60;;;;;;4990869;28;20726;-74
2021/09/18 11:03:09;;;;;;;1.60;1.50;;;21.50;54.60;;;;;;5006574;28;20530;-74
2021/09/18 11:05:44;;;;;;;1.35;1.25;;;21.50;54.60;;;;;;5008102;28;20054;-75
2021/09/18 11:08:23;;;;;;;1.50;1.40;;;21.50;54.50;;;;;;5007998;28;20688;-75
2021/09/18 11:10:56;;;;;;;1.30;1.30;;;21.50;54.50;;;;;;4998879;28;20139;-75
2021/09/18 11:13:29;;;;;;;1.48;1.38;;;21.50;54.40;;;;;;4974424;28;20042;-76
2021/09/18 11:16:19;;;;;;;1.48;1.38;;;21.50;54.30;;;;;;4990777;28;20117;-75
2021/09/18 11:18:57;;;;;;;1.30;1.20;;;21.50;54.30;;;;;;4990783;28;20068;-75
2021/09/18 11:21:37;;;;;;;1.00;1.00;;;21.50;54.30;;;;;;4995727;28;20128;-73
2021/09/18 11:24:21;;;;;;;1.13;1.13;;;21.50;54.30;;;;;;5007425;28;20104;-74
2021/09/18 11:26:55;;;;;;;1.05;1.05;;;21.50;54.20;;;;;;5008474;28;20057;-74
2021/09/18 11:29:37;;;;;;;1.05;1.05;;;21.50;54.30;;;;;;4989713;28;20056;-73
2021/09/18 11:32:11;;;;;;;1.00;0.90;;;21.60;54.20;;;;;;5000949;28;20100;-75
2021/09/18 11:34:50;;;;;;;1.25;1.15;;;21.60;54.00;;;;;;5008662;28;20045;-75
2021/09/18 11:37:24;;;;;;;1.17;1.17;;;21.60;54.00;;;;;;4990427;28;20049;-74
2021/09/18 11:40:01;;;;;;;1.17;1.13;;;21.60;53.90;;;;;;4987353;28;20128;-73
2021/09/18 11:42:31;;;;;;;1.27;1.25;;;21.60;53.90;;;;;;4983618;28;20108;-75
2021/09/18 11:45:05;;;;;;;0.88;0.88;;;21.60;53.90;;;;;;5010781;28;20056;-75
2021/09/18 11:47:36;;;;;;;1.08;1.08;;;21.60;54.00;;;;;;5011180;28;20550;-75
2021/09/18 11:50:30;;;;;;;1.00;1.00;;;21.60;54.10;;;;;;5007237;28;20120;-74
2021/09/18 11:53:06;;;;;;;1.00;1.00;;;21.70;53.90;;;;;;4988868;28;20511;-75
2021/09/18 11:55:45;;;;;;;0.90;0.90;;;21.70;53.80;;;;;;5010962;28;20177;-75
2021/09/18 11:58:33;;;;;;;1.27;1.27;;;21.70;53.90;;;;;;5011234;28;20050;-73
2021/09/18 12:01:03;;;;;;;1.00;1.00;;;21.70;53.70;;;;;;4999833;28;20638;-75
2021/09/18 12:03:35;;;;;;;0.98;0.98;;;21.70;53.50;;;;;;5009572;28;20149;-75
2021/09/18 12:06:11;;;;;;;0.82;0.82;;;21.70;53.70;;;;;;5011281;28;20049;-75
2021/09/18 12:08:40;;;;;;;1.00;0.98;;;21.70;53.60;;;;;;5011310;28;20080;-75
2021/09/18 12:11:13;;;;;;;1.00;1.00;;;21.70;53.40;;;;;;5000528;28;20176;-75
2021/09/18 12:13:48;;;;;;;1.23;1.23;;;21.70;53.60;;;;;;5009625;28;20054;-75
2021/09/18 12:16:17;;;;;;;0.80;0.80;;;21.70;53.50;;;;;;4993896;28;20046;-74
2021/09/18 12:18:47;;;;;;;0.98;0.98;;;21.70;53.30;;;;;;5010737;28;20054;-75
2021/09/18 12:21:22;;;;;;;0.90;0.90;;;21.70;53.40;;;;;;5004477;28;20061;-72
2021/09/18 12:23:56;;;;;;;1.20;1.20;;;21.70;53.40;;;;;;4977820;28;20140;-75
2021/09/18 12:26:25;;;;;;;1.30;1.20;;;21.70;53.30;;;;;;5010363;28;20060;-75
2021/09/18 12:29:10;;;;;;;1.10;1.10;;;21.70;53.40;;;;;;5010702;28;20110;-75
2021/09/18 12:31:38;;;;;;;0.98;0.98;;;21.70;53.50;;;;;;5001561;28;20046;-75
2021/09/18 12:34:13;;;;;;;1.08;1.08;;;21.60;53.30;;;;;;5011030;28;20050;-75
2021/09/18 12:36:41;;;;;;;1.25;1.15;;;21.60;53.40;;;;;;5010633;28;20609;-75
2021/09/18 12:39:15;;;;;;;1.38;1.27;;;21.60;53.50;;;;;;5010455;28;20057;-75
2021/09/18 12:41:44;;;;;;;0.93;0.93;;;21.60;53.30;;;;;;4998964;28;20044;-75
2021/09/18 12:44:16;;;;;;;0.93;0.93;;;21.60;53.20;;;;;;5010663;28;20085;-73
2021/09/18 12:46:46;;;;;;;0.85;0.85;;;21.60;53.30;;;;;;5010835;28;20779;-75
2021/09/18 12:49:14;;;;;;;1.05;1.05;;;21.60;53.30;;;;;;5010632;28;20046;-75
2021/09/18 12:51:43;;;;;;;0.85;0.85;;;21.60;53.10;;;;;;5000924;28;20053;-72
2021/09/18 12:54:18;;;;;;;0.80;0.80;;;21.60;53.10;;;;;;5009957;28;20137;-75
2021/09/18 12:56:47;;;;;;;0.90;0.90;;;21.60;53.20;;;;;;5009654;28;20256;-75
2021/09/18 12:59:17;;;;;;;1.25;1.23;;;21.70;53.10;;;;;;5009459;28;20046;-74
2021/09/18 13:01:51;;;;;;;0.90;0.80;;;21.60;53.00;;;;;;4999838;28;20150;-75
2021/09/18 13:04:25;;;;;;;1.00;0.90;;;21.70;53.10;;;;;;5009743;28;20053;-75